createdAt,value
2018-06-21T00:02:02.487Z,11.90
2018-06-21T00:04:33.391Z,11.90
2018-06-21T00:07:09.337Z,11.90
2018-06-21T00:12:18.401Z,11.90
2018-06-21T00:14:47.759Z,11.90
2018-06-21T00:17:19.303Z,11.80
2018-06-21T00:22:18.131Z,11.80
2018-06-21T00:27:18.107Z,11.80
2018-06-21T00:29:48.339Z,11.80
2018-06-21T00:34:48.174Z,11.70
2018-06-21T00:37:19.432Z,11.70
2018-06-21T00:39:49.728Z,11.80
2018-06-21T00:42:21.181Z,11.80
2018-06-21T00:44:59.691Z,11.80
2018-06-21T00:47:29.361Z,11.80
2018-06-21T00:50:02.111Z,11.90
2018-06-21T00:52:31.356Z,11.90
2018-06-21T00:55:00.274Z,11.90
2018-06-21T00:57:31.031Z,12.00
2018-06-21T01:00:01.118Z,12.00
2018-06-21T01:02:32.264Z,12.00
2018-06-21T01:05:03.223Z,12.00
2018-06-21T01:07:34.622Z,12.10
2018-06-21T01:10:04.486Z,12.10
2018-06-21T01:12:33.679Z,12.10
2018-06-21T01:15:03.352Z,12.00
2018-06-21T01:17:34.043Z,12.00
2018-06-21T01:20:09.203Z,12.00
2018-06-21T01:22:39.726Z,12.00
2018-06-21T01:25:10.328Z,11.90
2018-06-21T01:27:39.924Z,11.90
2018-06-21T01:32:44.710Z,12.00
2018-06-21T01:35:14.217Z,12.00
2018-06-21T01:37:45.866Z,12.00
2018-06-21T01:42:51.047Z,11.90
2018-06-21T01:45:21.041Z,11.80
2018-06-21T01:47:50.343Z,11.80
2018-06-21T01:50:20.225Z,11.80
2018-06-21T01:55:26.139Z,11.70
2018-06-21T02:00:30.309Z,11.70
2018-06-21T02:03:00.452Z,11.70
2018-06-21T02:05:32.091Z,11.70
2018-06-21T02:08:03.081Z,11.80
2018-06-21T02:10:33.305Z,11.70
2018-06-21T02:13:03.286Z,11.70
2018-06-21T02:15:34.979Z,11.70
2018-06-21T02:18:05.158Z,11.70
2018-06-21T02:20:34.139Z,11.70
2018-06-21T02:23:03.856Z,11.70
2018-06-21T02:25:34.070Z,11.70
2018-06-21T02:30:35.048Z,11.80
2018-06-21T02:33:05.271Z,11.80
2018-06-21T02:35:35.024Z,11.80
2018-06-21T02:38:03.925Z,11.80
2018-06-21T02:40:33.567Z,11.80
2018-06-21T02:43:03.131Z,11.80
2018-06-21T02:45:33.401Z,11.80
2018-06-21T02:48:03.279Z,11.80
2018-06-21T02:50:41.995Z,11.80
2018-06-21T02:53:12.211Z,11.80
2018-06-21T02:58:12.240Z,11.90
2018-06-21T03:00:41.362Z,11.90
2018-06-21T03:03:11.294Z,12.00
2018-06-21T03:08:15.206Z,12.20
2018-06-21T03:10:46.072Z,12.20
2018-06-21T03:13:16.481Z,12.30
2018-06-21T03:15:46.943Z,12.30
2018-06-21T03:18:16.410Z,12.20
2018-06-21T03:20:46.019Z,12.20
2018-06-21T03:23:16.911Z,12.20
2018-06-21T03:25:47.517Z,12.10
2018-06-21T03:28:18.632Z,12.20
2018-06-21T03:30:50.272Z,12.20
2018-06-21T03:33:31.996Z,12.20
2018-06-21T03:36:03.311Z,12.10
2018-06-21T03:38:34.995Z,12.20
2018-06-21T03:41:05.850Z,12.20
2018-06-21T03:43:36.224Z,12.20
2018-06-21T03:46:05.483Z,12.30
2018-06-21T03:48:35.235Z,12.40
2018-06-21T03:51:05.292Z,12.50
2018-06-21T03:53:36.307Z,12.50
2018-06-21T03:56:06.944Z,12.60
2018-06-21T03:58:37.439Z,12.70
2018-06-21T04:01:07.589Z,12.70
2018-06-21T04:03:37.091Z,12.60
2018-06-21T04:06:07.101Z,12.50
2018-06-21T04:08:38.347Z,12.50
2018-06-21T04:11:07.456Z,12.40
2018-06-21T04:13:37.570Z,12.50
2018-06-21T04:16:07.557Z,12.50
2018-06-21T04:21:09.452Z,12.60
2018-06-21T04:23:39.120Z,12.60
2018-06-21T04:26:08.820Z,12.50
2018-06-21T04:28:38.956Z,12.50
2018-06-21T04:31:08.247Z,12.50
2018-06-21T04:33:39.615Z,12.60
2018-06-21T04:38:40.704Z,12.70
2018-06-21T04:41:09.647Z,12.80
2018-06-21T04:43:40.230Z,12.80
2018-06-21T04:46:10.066Z,12.90
2018-06-21T04:48:40.974Z,12.80
2018-06-21T04:51:09.872Z,12.80
2018-06-21T04:53:38.886Z,12.80
2018-06-21T04:56:09.011Z,12.80
2018-06-21T04:58:38.146Z,12.80
2018-06-21T05:01:08.429Z,12.90
2018-06-21T05:03:37.851Z,12.90
2018-06-21T05:06:07.181Z,13.00
2018-06-21T05:08:37.457Z,13.00
2018-06-21T05:11:08.863Z,13.20
2018-06-21T05:13:43.599Z,13.30
2018-06-21T05:16:15.941Z,13.20
2018-06-21T05:18:45.884Z,13.20
2018-06-21T05:21:16.978Z,13.20
2018-06-21T05:23:52.898Z,13.30
2018-06-21T05:26:23.810Z,13.30
2018-06-21T05:28:55.640Z,13.30
2018-06-21T05:31:26.847Z,13.20
2018-06-21T05:33:57.667Z,13.00
2018-06-21T05:36:28.022Z,12.90
2018-06-21T05:38:57.256Z,12.90
2018-06-21T05:41:27.927Z,12.90
2018-06-21T05:43:57.754Z,12.90
2018-06-21T05:46:28.574Z,12.90
2018-06-21T05:48:58.956Z,12.90
2018-06-21T05:51:29.546Z,12.90
2018-06-21T05:53:59.886Z,12.90
2018-06-21T05:56:29.939Z,12.80
2018-06-21T05:58:59.590Z,12.80
2018-06-21T06:01:29.707Z,12.70
2018-06-21T06:04:00.402Z,12.60
2018-06-21T06:06:31.715Z,12.60
2018-06-21T06:09:02.397Z,12.60
2018-06-21T06:11:31.874Z,12.60
2018-06-21T06:14:02.063Z,12.60
2018-06-21T06:16:31.779Z,12.60
2018-06-21T06:19:03.452Z,12.50
2018-06-21T06:21:33.535Z,12.50
2018-06-21T06:24:02.998Z,12.50
2018-06-21T06:26:32.774Z,12.50
2018-06-21T06:29:03.551Z,12.60
2018-06-21T06:31:38.723Z,12.60
2018-06-21T06:34:09.899Z,12.70
2018-06-21T06:36:39.627Z,12.70
2018-06-21T06:39:20.295Z,12.70
2018-06-21T06:41:53.101Z,12.70
2018-06-21T06:44:22.408Z,12.60
2018-06-21T06:46:51.575Z,12.70
2018-06-21T06:49:22.771Z,12.70
2018-06-21T06:51:53.903Z,12.60
2018-06-21T06:54:25.389Z,12.60
2018-06-21T06:59:28.679Z,12.50
2018-06-21T07:01:58.976Z,12.40
2018-06-21T07:04:28.898Z,12.40
2018-06-21T07:06:57.778Z,12.40
2018-06-21T07:09:28.830Z,12.40
2018-06-21T07:11:59.667Z,12.60
2018-06-21T07:14:29.856Z,12.70
2018-06-21T07:16:59.921Z,12.70
2018-06-21T07:19:35.514Z,12.80
2018-06-21T07:22:05.001Z,12.90
2018-06-21T07:24:34.510Z,12.80
2018-06-21T07:27:03.791Z,12.80
2018-06-21T07:29:33.396Z,12.90
2018-06-21T07:32:04.518Z,13.00
2018-06-21T07:34:35.333Z,13.10
2018-06-21T07:37:05.539Z,13.30
2018-06-21T07:39:35.419Z,13.30
2018-06-21T07:42:07.421Z,13.40
2018-06-21T07:44:38.792Z,13.40
2018-06-21T07:47:08.776Z,13.40
2018-06-21T07:49:37.491Z,13.40
2018-06-21T07:52:08.451Z,13.30
2018-06-21T07:54:38.719Z,13.30
2018-06-21T07:57:07.751Z,13.20
2018-06-21T07:59:37.759Z,13.20
2018-06-21T08:02:08.653Z,13.20
2018-06-21T08:04:39.523Z,13.20
2018-06-21T08:07:10.086Z,13.20
2018-06-21T08:09:39.310Z,13.10
2018-06-21T08:12:08.823Z,13.20
2018-06-21T08:14:38.560Z,13.10
2018-06-21T08:17:09.657Z,13.00
2018-06-21T08:19:40.787Z,13.00
2018-06-21T08:22:10.088Z,13.10
2018-06-21T08:24:39.857Z,13.10
2018-06-21T08:27:10.938Z,13.20
2018-06-21T08:29:41.023Z,13.30
2018-06-21T08:32:11.090Z,13.40
2018-06-21T08:34:44.138Z,13.50
2018-06-21T08:37:14.182Z,13.60
2018-06-21T08:39:44.377Z,13.70
2018-06-21T08:42:14.974Z,13.80
2018-06-21T08:44:46.258Z,13.80
2018-06-21T08:47:16.276Z,13.80
2018-06-21T08:49:45.654Z,13.80
2018-06-21T08:52:15.824Z,13.90
2018-06-21T08:54:45.783Z,14.00
2018-06-21T08:57:16.012Z,14.10
2018-06-21T08:59:47.580Z,14.20
2018-06-21T09:02:17.705Z,14.20
2018-06-21T09:04:48.486Z,14.30
2018-06-21T09:07:18.384Z,14.50
2018-06-21T09:09:48.360Z,14.70
2018-06-21T09:12:18.417Z,14.80
2018-06-21T09:14:48.388Z,14.80
2018-06-21T09:17:39.338Z,14.80
2018-06-21T09:20:09.329Z,15.00
2018-06-21T09:22:39.204Z,15.20
2018-06-21T09:25:08.791Z,15.40
2018-06-21T09:27:39.284Z,15.70
2018-06-21T09:30:09.144Z,16.00
2018-06-21T09:32:38.975Z,16.30
2018-06-21T09:35:09.048Z,16.40
2018-06-21T09:37:47.353Z,16.70
2018-06-21T09:40:21.620Z,16.70
2018-06-21T09:42:57.257Z,16.80
2018-06-21T09:45:31.120Z,16.70
2018-06-21T09:48:05.952Z,16.80
2018-06-21T09:50:35.480Z,16.80
2018-06-21T09:53:05.417Z,16.80
2018-06-21T09:55:36.526Z,16.80
2018-06-21T09:58:06.347Z,16.80
2018-06-21T10:00:41.455Z,16.80
2018-06-21T10:03:11.414Z,16.80
2018-06-21T10:05:41.904Z,16.90
2018-06-21T10:08:11.783Z,17.20
2018-06-21T10:10:41.704Z,17.40
2018-06-21T10:13:11.716Z,17.40
2018-06-21T10:15:44.753Z,17.20
2018-06-21T10:18:14.807Z,17.30
2018-06-21T10:20:44.532Z,17.50
2018-06-21T10:23:14.972Z,17.80
2018-06-21T10:25:44.917Z,18.10
2018-06-21T10:28:14.999Z,18.20
2018-06-21T10:30:45.107Z,18.20
2018-06-21T10:33:16.199Z,18.30
2018-06-21T10:35:46.686Z,18.20
2018-06-21T10:38:16.214Z,18.40
2018-06-21T10:40:46.301Z,18.60
2018-06-21T10:43:17.049Z,18.60
2018-06-21T10:45:47.068Z,18.60
2018-06-21T10:48:16.857Z,18.50
2018-06-21T10:50:46.527Z,18.40
2018-06-21T10:53:16.578Z,18.20
2018-06-21T10:55:46.748Z,18.10
2018-06-21T10:58:16.626Z,18.30
2018-06-21T11:00:46.584Z,18.30
2018-06-21T11:03:16.125Z,18.40
2018-06-21T11:05:45.938Z,18.50
2018-06-21T11:08:16.917Z,18.50
2018-06-21T11:10:47.500Z,18.50
2018-06-21T11:13:17.283Z,18.50
2018-06-21T11:15:47.103Z,18.50
2018-06-21T11:18:17.214Z,18.50
2018-06-21T11:20:46.563Z,18.50
2018-06-21T11:23:15.679Z,18.60
2018-06-21T11:25:46.709Z,18.50
2018-06-21T11:28:18.088Z,18.50
2018-06-21T11:30:48.244Z,18.40
2018-06-21T11:33:18.244Z,18.60
2018-06-21T11:35:48.494Z,18.70
2018-06-21T11:38:19.008Z,18.60
2018-06-21T11:40:48.895Z,18.40
2018-06-21T11:43:18.861Z,18.20
2018-06-21T11:45:48.509Z,17.90
2018-06-21T11:48:18.496Z,17.60
2018-06-21T11:50:49.263Z,17.30
2018-06-21T11:53:18.572Z,17.00
2018-06-21T11:55:48.448Z,16.80
2018-06-21T11:58:18.575Z,16.70
2018-06-21T12:00:47.519Z,16.70
2018-06-21T12:03:18.277Z,16.60
2018-06-21T12:05:49.178Z,16.70
2018-06-21T12:08:20.205Z,16.60
2018-06-21T12:10:51.571Z,16.60
2018-06-21T12:13:23.051Z,16.60
2018-06-21T12:15:53.515Z,16.60
2018-06-21T12:18:29.839Z,16.40
2018-06-21T12:20:59.539Z,16.50
2018-06-21T12:23:30.043Z,16.70
2018-06-21T12:25:59.667Z,17.00
2018-06-21T12:28:30.400Z,17.30
2018-06-21T12:31:01.319Z,17.40
2018-06-21T12:33:31.136Z,17.30
2018-06-21T12:36:02.311Z,17.00
2018-06-21T12:38:32.447Z,16.90
2018-06-21T12:41:02.999Z,16.70
2018-06-21T12:43:33.165Z,16.50
2018-06-21T12:46:03.175Z,16.50
2018-06-21T12:48:33.663Z,16.70
2018-06-21T12:51:05.195Z,16.60
2018-06-21T12:53:35.057Z,16.60
2018-06-21T12:56:05.129Z,16.80
2018-06-21T12:58:35.051Z,17.10
2018-06-21T13:01:05.228Z,17.20
2018-06-21T13:03:35.150Z,17.30
2018-06-21T13:06:05.822Z,17.60
2018-06-21T13:08:47.636Z,17.60
2018-06-21T13:12:33.035Z,17.70
2018-06-21T13:15:03.200Z,17.90
2018-06-21T13:17:33.600Z,17.70
2018-06-21T13:20:05.189Z,17.70
2018-06-21T13:22:36.448Z,17.60
2018-06-21T13:25:05.991Z,17.50
2018-06-21T13:27:36.405Z,17.20
2018-06-21T13:30:06.969Z,17.10
2018-06-21T13:32:37.357Z,17.00
2018-06-21T13:35:08.664Z,17.00
2018-06-21T13:37:38.350Z,17.00
2018-06-21T13:40:09.250Z,16.90
2018-06-21T13:42:38.345Z,16.80
2018-06-21T13:45:09.017Z,16.50
2018-06-21T13:47:41.122Z,16.30
2018-06-21T13:50:12.359Z,16.20
2018-06-21T13:55:14.097Z,15.20
2018-06-21T13:57:45.016Z,14.60
2018-06-21T14:00:15.426Z,14.20
2018-06-21T14:02:46.155Z,14.00
2018-06-21T14:05:17.822Z,13.90
2018-06-21T14:07:47.988Z,13.80
2018-06-21T14:10:18.974Z,13.80
2018-06-21T14:12:48.960Z,13.80
2018-06-21T14:15:19.802Z,13.90
2018-06-21T14:17:50.218Z,13.90
2018-06-21T14:20:20.128Z,14.00
2018-06-21T14:22:49.901Z,14.10
2018-06-21T14:25:20.945Z,14.20
2018-06-21T14:27:52.032Z,14.30
2018-06-21T14:30:23.150Z,14.40
2018-06-21T14:32:54.259Z,14.50
2018-06-21T14:35:26.316Z,14.70
2018-06-21T14:37:56.023Z,14.90
2018-06-21T14:40:26.214Z,15.10
2018-06-21T14:42:55.869Z,15.30
2018-06-21T14:45:27.353Z,15.20
2018-06-21T14:47:58.027Z,15.40
2018-06-21T14:50:28.027Z,15.40
2018-06-21T14:52:57.935Z,15.40
2018-06-21T14:55:29.566Z,15.50
2018-06-21T14:58:00.119Z,15.60
2018-06-21T15:00:31.306Z,15.60
2018-06-21T15:03:02.388Z,15.70
2018-06-21T15:05:33.832Z,15.70
2018-06-21T15:08:04.531Z,15.70
2018-06-21T15:10:34.627Z,15.60
2018-06-21T15:13:04.915Z,15.50
2018-06-21T15:15:35.837Z,15.40
2018-06-21T15:18:06.805Z,15.40
2018-06-21T15:24:39.467Z,15.50
2018-06-21T15:27:11.064Z,15.40
2018-06-21T15:29:43.120Z,15.30
2018-06-21T15:32:13.235Z,15.30
2018-06-21T15:34:43.627Z,15.20
2018-06-21T15:37:19.843Z,15.20
2018-06-21T15:39:50.029Z,15.20
2018-06-21T15:42:20.615Z,15.20
2018-06-21T15:44:52.642Z,15.40
2018-06-21T15:47:23.483Z,15.50
2018-06-21T15:51:23.006Z,15.70
2018-06-21T15:53:53.707Z,15.90
2018-06-21T15:56:23.305Z,16.40
2018-06-21T15:58:57.104Z,16.50
2018-06-21T16:01:28.728Z,16.40
2018-06-21T16:03:59.050Z,16.10
2018-06-21T16:06:29.181Z,16.00
2018-06-21T16:08:58.810Z,15.80
2018-06-21T16:11:27.890Z,15.70
2018-06-21T16:13:59.352Z,15.60
2018-06-21T16:16:29.609Z,15.40
2018-06-21T16:19:06.091Z,15.30
2018-06-21T16:21:37.234Z,15.20
2018-06-21T16:24:07.575Z,15.10
2018-06-21T16:26:37.182Z,15.00
2018-06-21T16:29:07.160Z,15.00
2018-06-21T16:31:38.954Z,15.00
2018-06-21T16:34:18.026Z,14.90
2018-06-21T16:36:48.043Z,14.90
2018-06-21T16:39:17.899Z,14.80
2018-06-21T16:41:47.238Z,14.80
2018-06-21T16:44:17.158Z,14.80
2018-06-21T16:46:47.665Z,14.80
2018-06-21T16:49:17.449Z,14.90
2018-06-21T16:51:46.782Z,15.00
2018-06-21T16:54:16.750Z,15.10
2018-06-21T16:56:47.258Z,15.20
2018-06-21T16:59:17.885Z,15.20
2018-06-21T17:01:48.380Z,15.10
2018-06-21T17:04:18.249Z,15.00
2018-06-21T17:06:47.847Z,14.90
2018-06-21T17:09:18.149Z,14.90
2018-06-21T17:11:48.452Z,14.80
2018-06-21T17:14:18.164Z,14.80
2018-06-21T17:16:48.036Z,14.80
2018-06-21T17:19:17.640Z,14.80
2018-06-21T17:21:47.814Z,14.80
2018-06-21T17:24:17.970Z,14.70
2018-06-21T17:26:51.394Z,14.70
2018-06-21T17:29:21.638Z,14.80
2018-06-21T17:31:51.723Z,14.70
2018-06-21T17:34:21.825Z,14.60
2018-06-21T17:36:51.891Z,14.50
2018-06-21T17:39:21.013Z,14.50
2018-06-21T17:41:50.849Z,14.50
2018-06-21T17:44:21.012Z,14.40
2018-06-21T17:46:51.595Z,14.40
2018-06-21T17:49:23.013Z,14.30
2018-06-21T17:51:53.672Z,14.20
2018-06-21T17:54:24.563Z,14.00
2018-06-21T17:56:54.861Z,14.00
2018-06-21T17:59:25.470Z,13.90
2018-06-21T18:01:56.820Z,13.90
2018-06-21T18:04:26.858Z,13.90
2018-06-21T18:06:58.368Z,13.80
2018-06-21T18:09:29.682Z,13.90
2018-06-21T18:12:00.326Z,13.80
2018-06-21T18:14:40.061Z,13.80
2018-06-21T18:17:10.912Z,13.80
2018-06-21T18:19:40.911Z,13.70
2018-06-21T18:22:12.183Z,13.70
2018-06-21T18:24:41.512Z,13.60
2018-06-21T18:27:11.146Z,13.60
2018-06-21T18:29:42.235Z,13.40
2018-06-21T18:32:11.481Z,13.40
2018-06-21T18:34:41.731Z,13.40
2018-06-21T18:37:11.765Z,13.40
2018-06-21T18:39:41.677Z,13.40
2018-06-21T18:42:13.502Z,13.30
2018-06-21T18:44:44.650Z,13.30
2018-06-21T18:47:15.144Z,13.20
2018-06-21T18:49:45.516Z,13.20
2018-06-21T18:52:16.416Z,13.20
2018-06-21T18:54:54.328Z,13.10
2018-06-21T18:57:32.808Z,13.20
2018-06-21T19:00:02.903Z,13.20
2018-06-21T19:02:32.521Z,13.20
2018-06-21T19:05:03.703Z,13.20
2018-06-21T19:07:35.889Z,13.20
2018-06-21T19:10:10.958Z,13.20
2018-06-21T19:12:44.062Z,13.20
2018-06-21T19:15:13.665Z,13.10
2018-06-21T19:17:43.640Z,13.00
2018-06-21T19:20:12.941Z,12.90
2018-06-21T19:22:42.775Z,12.80
2018-06-21T19:25:12.727Z,12.80
2018-06-21T19:27:42.226Z,12.80
2018-06-21T19:30:11.414Z,12.70
2018-06-21T19:32:41.579Z,12.70
2018-06-21T19:35:11.545Z,12.70
2018-06-21T19:37:41.443Z,12.70
2018-06-21T19:40:11.783Z,12.60
2018-06-21T19:42:42.417Z,12.60
2018-06-21T19:45:12.975Z,12.60
2018-06-21T19:47:44.160Z,12.60
2018-06-21T19:50:13.567Z,12.60
2018-06-21T19:52:43.043Z,12.50
2018-06-21T19:55:13.527Z,12.50
2018-06-21T19:57:44.843Z,12.50
2018-06-21T20:00:16.759Z,12.50
2018-06-21T20:02:52.485Z,12.50
2018-06-21T20:05:23.013Z,12.30
2018-06-21T20:07:52.159Z,12.20
2018-06-21T20:10:22.336Z,12.10
2018-06-21T20:12:52.396Z,12.00
2018-06-21T20:17:56.505Z,12.00
2018-06-21T20:20:34.704Z,12.00
2018-06-21T20:23:04.648Z,12.00
2018-06-21T20:25:35.162Z,11.90
2018-06-21T20:28:05.577Z,11.90
2018-06-21T20:30:36.684Z,11.90
2018-06-21T20:33:07.648Z,11.90
2018-06-21T20:35:48.283Z,11.80
2018-06-21T20:38:17.585Z,11.90
2018-06-21T20:40:47.102Z,11.80
2018-06-21T20:43:19.040Z,11.70
2018-06-21T20:45:50.115Z,11.70
2018-06-21T20:48:19.431Z,11.70
2018-06-21T20:50:49.067Z,11.70
2018-06-21T20:53:20.573Z,11.60
2018-06-21T20:55:54.554Z,11.70
2018-06-21T20:58:24.886Z,11.60
2018-06-21T21:00:54.578Z,11.60
2018-06-21T21:03:24.919Z,11.50
2018-06-21T21:05:58.588Z,11.40
2018-06-21T21:08:36.183Z,11.30
2018-06-21T21:11:06.970Z,11.20
2018-06-21T21:13:38.490Z,11.10
2018-06-21T21:16:09.219Z,11.10
2018-06-21T21:18:40.545Z,11.10
2018-06-21T21:21:12.920Z,11.10
2018-06-21T21:23:43.656Z,11.10
2018-06-21T21:26:13.919Z,11.10
2018-06-21T21:28:58.663Z,11.00
2018-06-21T21:31:30.246Z,11.00
2018-06-21T21:34:00.447Z,11.00
2018-06-21T21:36:32.383Z,10.90
2018-06-21T21:39:03.347Z,10.90
2018-06-21T21:41:34.537Z,10.80
2018-06-21T21:44:06.976Z,10.80
2018-06-21T21:46:38.625Z,10.70
2018-06-21T21:49:11.583Z,10.70
2018-06-21T21:51:44.804Z,10.70
2018-06-21T21:54:16.815Z,10.60
2018-06-21T21:56:48.670Z,10.60
2018-06-21T21:59:19.199Z,10.60
2018-06-21T22:01:51.290Z,10.60
2018-06-21T22:04:21.536Z,10.50
2018-06-21T22:06:59.701Z,10.40
2018-06-21T22:09:35.962Z,10.40
2018-06-21T22:12:06.199Z,10.40
2018-06-21T22:17:14.348Z,10.30
2018-06-21T22:19:52.104Z,10.40
2018-06-21T22:22:21.880Z,10.30
2018-06-21T22:24:52.836Z,10.40
2018-06-21T22:27:24.526Z,10.30
2018-06-21T22:29:54.644Z,10.30
2018-06-21T22:32:24.659Z,10.30
2018-06-21T22:34:54.697Z,10.30
2018-06-21T22:37:24.727Z,10.20
2018-06-21T22:40:00.676Z,10.20
2018-06-21T22:42:30.647Z,10.20
2018-06-21T22:45:00.509Z,10.20
2018-06-21T22:47:30.871Z,10.10
2018-06-21T22:50:01.052Z,10.10
2018-06-21T22:52:31.992Z,10.10
2018-06-21T22:55:02.795Z,10.00
2018-06-21T22:57:33.524Z,10.00
2018-06-21T23:00:03.887Z,9.90
2018-06-21T23:02:39.020Z,9.90
2018-06-21T23:05:12.150Z,9.90
2018-06-21T23:07:43.134Z,9.80
2018-06-21T23:10:17.034Z,9.80
2018-06-21T23:12:49.293Z,9.80
2018-06-21T23:15:19.112Z,9.70
2018-06-21T23:17:50.034Z,9.70
2018-06-21T23:20:20.156Z,9.60
2018-06-21T23:22:50.626Z,9.50
2018-06-21T23:25:20.126Z,9.40
2018-06-21T23:27:52.056Z,9.40
2018-06-21T23:30:21.832Z,9.40
2018-06-21T23:32:52.479Z,9.40
2018-06-21T23:35:22.571Z,9.40
2018-06-21T23:37:53.976Z,9.30
2018-06-21T23:40:24.465Z,9.30
2018-06-21T23:42:55.361Z,9.30
2018-06-21T23:45:26.664Z,9.30
2018-06-21T23:47:55.742Z,9.30
2018-06-21T23:50:26.331Z,9.30
2018-06-21T23:52:57.477Z,9.20
2018-06-21T23:55:26.679Z,9.20
2018-06-21T23:57:56.890Z,9.20
